createdAt,value
2023-03-23T15:57:52.207Z,3.00
2023-03-23T15:58:59.624Z,2.60
2023-03-23T16:00:03.550Z,3.17
2023-03-23T16:01:17.664Z,2.78
2023-03-23T16:02:25.557Z,3.03
2023-03-23T16:03:33.691Z,2.90
2023-03-23T16:04:35.361Z,3.55
2023-03-23T16:06:39.615Z,3.23
2023-03-23T16:07:41.598Z,3.00
2023-03-23T16:08:43.271Z,3.03
2023-03-23T16:09:58.923Z,3.20
2023-03-23T16:11:04.071Z,2.83
2023-03-23T16:12:05.851Z,2.75
2023-03-23T16:14:12.475Z,2.65
2023-03-23T16:15:15.819Z,2.80
2023-03-23T16:16:50.488Z,3.00
2023-03-23T16:17:55.343Z,2.40
2023-03-23T16:18:59.232Z,2.72
2023-03-23T16:21:03.649Z,2.90
2023-03-23T16:22:05.292Z,2.75
2023-03-23T16:23:06.975Z,2.70
2023-03-23T16:24:09.687Z,2.95
2023-03-23T16:25:11.804Z,2.90
2023-03-23T16:26:15.331Z,3.00
2023-03-23T16:27:17.267Z,3.28
2023-03-23T16:28:20.611Z,3.42
2023-03-23T16:29:39.738Z,3.75
2023-03-23T16:30:49.665Z,3.20
2023-03-23T16:31:51.330Z,2.90
2023-03-23T16:33:58.667Z,2.88
2023-03-23T16:35:02.427Z,3.00
2023-03-23T16:37:06.888Z,2.90
2023-03-23T16:38:16.380Z,3.47
2023-03-23T16:39:19.132Z,3.95
2023-03-23T16:40:24.100Z,4.20
2023-03-23T16:41:25.997Z,4.55
2023-03-23T16:42:27.756Z,4.05
2023-03-23T16:44:31.249Z,3.70
2023-03-23T16:45:33.100Z,3.88
2023-03-23T16:46:37.462Z,3.80
2023-03-23T16:47:39.402Z,3.70
2023-03-23T16:48:41.241Z,3.42
2023-03-23T16:49:43.016Z,3.05
2023-03-23T16:51:48.189Z,5.88
2023-03-23T16:52:50.191Z,6.70
2023-03-23T16:53:51.892Z,7.40
2023-03-23T16:55:57.801Z,5.93
2023-03-23T16:57:01.714Z,5.55
2023-03-23T16:59:08.975Z,3.97
2023-03-23T17:00:16.744Z,5.68
2023-03-23T17:01:19.733Z,7.40
2023-03-23T17:02:21.981Z,8.55
2023-03-23T17:03:23.934Z,5.20
2023-03-23T17:04:25.954Z,4.53
2023-03-23T17:05:29.531Z,5.55
2023-03-23T17:06:31.238Z,31.95
2023-03-23T17:07:33.039Z,27.95
2023-03-23T17:08:36.853Z,16.08
2023-03-23T17:10:41.723Z,15.23
2023-03-23T17:11:43.495Z,12.20
2023-03-23T17:13:46.734Z,8.15
2023-03-23T17:15:53.446Z,10.23
2023-03-23T17:16:55.469Z,13.88
2023-03-23T17:18:58.708Z,11.77
2023-03-23T17:21:02.169Z,5.05
2023-03-23T17:22:04.098Z,7.90
2023-03-23T17:23:08.029Z,6.90
2023-03-23T17:24:11.997Z,5.20
2023-03-23T17:25:14.051Z,5.28
2023-03-23T17:26:15.840Z,4.50
2023-03-23T17:29:23.088Z,4.53
2023-03-23T17:30:24.952Z,4.95
2023-03-23T17:31:26.813Z,5.60
2023-03-23T17:32:28.569Z,5.50
2023-03-23T17:34:32.299Z,5.50
2023-03-23T17:35:34.099Z,5.63
2023-03-23T17:36:35.773Z,5.95
2023-03-23T17:37:37.937Z,5.70
2023-03-23T17:38:39.740Z,6.45
2023-03-23T17:40:47.519Z,4.30
2023-03-23T17:42:53.076Z,4.35
2023-03-23T17:43:54.769Z,3.83
2023-03-23T17:45:01.892Z,4.20
2023-03-23T17:46:03.716Z,3.17
2023-03-23T17:47:05.922Z,2.72
2023-03-23T17:48:08.140Z,3.35
2023-03-23T17:49:12.429Z,3.72
2023-03-23T17:50:17.537Z,4.05
2023-03-23T17:51:19.666Z,3.30
2023-03-23T17:52:21.540Z,3.50
2023-03-23T17:53:25.507Z,3.88
2023-03-23T17:54:29.622Z,4.53
2023-03-23T17:55:31.378Z,4.10
2023-03-23T17:57:35.281Z,3.63
2023-03-23T17:58:37.439Z,4.20
2023-03-23T17:59:39.459Z,4.13
2023-03-23T18:00:41.312Z,4.82
2023-03-23T18:01:43.143Z,4.68
2023-03-23T18:02:44.955Z,5.03
2023-03-23T18:03:46.789Z,5.72
2023-03-23T18:05:52.146Z,5.25
2023-03-23T18:06:58.012Z,4.45
2023-03-23T18:08:02.636Z,4.90
2023-03-23T18:09:05.562Z,4.80
2023-03-23T18:10:12.843Z,4.20
2023-03-23T18:11:15.413Z,4.32
2023-03-23T18:12:17.721Z,4.32
2023-03-23T18:13:19.418Z,5.45
2023-03-23T18:14:24.062Z,3.50
2023-03-23T18:15:29.413Z,3.97
2023-03-23T18:16:31.663Z,3.70
2023-03-23T18:18:40.128Z,4.22
2023-03-23T18:20:43.453Z,3.20
2023-03-23T18:22:48.780Z,3.00
2023-03-23T18:23:59.158Z,2.88
2023-03-23T18:25:02.734Z,2.87
2023-03-23T18:26:10.872Z,3.10
2023-03-23T18:27:15.829Z,3.08
2023-03-23T18:28:17.829Z,3.60
2023-03-23T18:29:19.585Z,3.17
2023-03-23T18:31:25.359Z,3.30
2023-03-23T18:32:27.745Z,3.00
2023-03-23T18:33:29.498Z,3.20
2023-03-23T18:34:32.095Z,3.10
2023-03-23T18:35:33.846Z,3.00
2023-03-23T18:37:41.398Z,3.37
2023-03-23T18:38:45.731Z,3.38
2023-03-23T18:39:47.812Z,3.90
2023-03-23T18:40:49.583Z,4.15
2023-03-23T18:42:53.124Z,3.78
2023-03-23T18:43:57.892Z,4.10
2023-03-23T18:44:59.967Z,3.05
2023-03-23T18:46:02.449Z,3.05
2023-03-23T18:47:04.739Z,2.97
2023-03-23T18:48:07.459Z,3.35
2023-03-23T18:49:09.253Z,3.33
2023-03-23T18:51:12.796Z,3.22
2023-03-23T18:53:25.684Z,3.28
2023-03-23T18:54:28.493Z,2.85
2023-03-23T18:55:30.263Z,3.30
2023-03-23T18:57:33.882Z,3.35
2023-03-23T18:58:36.733Z,3.03
2023-03-23T18:59:38.461Z,3.10
2023-03-23T19:01:42.133Z,2.50
2023-03-23T19:02:46.144Z,3.00
2023-03-23T19:03:53.891Z,3.38
2023-03-23T19:05:59.668Z,3.85
2023-03-23T19:07:01.940Z,3.78
2023-03-23T19:08:03.786Z,4.38
2023-03-23T19:09:05.450Z,4.80
2023-03-23T19:10:07.324Z,3.80
2023-03-23T19:11:11.561Z,3.83
2023-03-23T19:12:13.852Z,4.00
2023-03-23T19:13:20.455Z,3.30
2023-03-23T19:14:22.815Z,3.35
2023-03-23T19:15:24.776Z,2.90
2023-03-23T19:16:26.766Z,3.00
2023-03-23T19:17:30.822Z,3.30
2023-03-23T19:18:33.532Z,4.05
2023-03-23T19:19:38.203Z,3.35
2023-03-23T19:22:55.224Z,2.83
2023-03-23T19:23:59.861Z,3.97
2023-03-23T19:25:01.654Z,3.67
2023-03-23T19:27:05.630Z,4.80
2023-03-23T19:30:20.387Z,4.20
2023-03-23T19:31:25.116Z,3.42
2023-03-23T19:32:26.965Z,3.30
2023-03-23T19:33:31.060Z,3.78
2023-03-23T19:34:33.720Z,3.40
2023-03-23T19:35:35.992Z,3.10
2023-03-23T19:36:39.575Z,3.22
2023-03-23T19:37:41.516Z,3.45
2023-03-23T19:39:44.739Z,3.20
2023-03-23T19:40:56.005Z,3.35
2023-03-23T19:41:59.917Z,3.70
2023-03-23T19:43:02.458Z,3.33
2023-03-23T19:44:05.744Z,3.42
2023-03-23T19:45:08.968Z,3.25
2023-03-23T19:46:12.230Z,3.10
2023-03-23T19:47:14.594Z,3.47
2023-03-23T19:48:17.790Z,3.40
2023-03-23T19:49:20.037Z,3.50
2023-03-23T19:50:21.878Z,3.42
2023-03-23T19:51:27.595Z,3.65
2023-03-23T19:52:30.183Z,3.40
2023-03-23T19:53:32.183Z,3.47
2023-03-23T19:54:33.919Z,3.22
2023-03-23T19:56:40.100Z,3.47
2023-03-23T19:57:42.706Z,3.35
2023-03-23T19:58:48.992Z,3.75
2023-03-23T19:59:50.823Z,3.80
2023-03-23T20:00:52.981Z,3.63
2023-03-23T20:01:55.047Z,3.20
2023-03-23T20:04:00.125Z,3.80
2023-03-23T20:05:04.547Z,3.25
2023-03-23T20:06:11.040Z,3.50
2023-03-23T20:07:12.822Z,3.60
2023-03-23T20:09:19.825Z,3.92
2023-03-23T20:10:24.431Z,3.42
2023-03-23T20:11:26.147Z,3.45
2023-03-23T20:13:30.001Z,3.75
2023-03-23T20:14:37.473Z,3.55
2023-03-23T20:15:41.981Z,3.17
2023-03-23T20:16:43.700Z,3.28
2023-03-23T20:17:45.505Z,3.20
2023-03-23T20:18:47.487Z,3.55
2023-03-23T20:19:49.512Z,3.50
2023-03-23T20:20:52.671Z,3.05
2023-03-23T20:21:56.362Z,3.55
2023-03-23T20:23:01.578Z,4.10
2023-03-23T20:24:03.387Z,3.50
2023-03-23T20:25:07.425Z,3.90
2023-03-23T20:26:15.538Z,3.47
2023-03-23T20:27:17.648Z,3.35
2023-03-23T20:28:19.387Z,3.90
2023-03-23T20:29:21.228Z,3.28
2023-03-23T20:30:22.963Z,3.65
2023-03-23T20:31:32.066Z,3.60
2023-03-23T20:32:37.322Z,3.42
2023-03-23T20:33:39.766Z,3.67
2023-03-23T20:34:41.450Z,3.70
2023-03-23T20:36:45.979Z,3.63
2023-03-23T20:37:50.540Z,3.45
2023-03-23T20:38:52.282Z,3.40
2023-03-23T20:40:57.017Z,3.53
2023-03-23T20:42:02.901Z,3.92
2023-03-23T20:43:04.553Z,4.00
2023-03-23T20:44:14.090Z,3.60
2023-03-23T20:45:16.556Z,3.50
2023-03-23T20:46:19.081Z,3.65
2023-03-23T20:47:25.601Z,3.88
2023-03-23T20:48:30.759Z,3.72
2023-03-23T20:49:34.751Z,3.53
2023-03-23T20:50:36.519Z,3.50
2023-03-23T20:51:40.250Z,3.78
2023-03-23T20:53:44.941Z,4.30
2023-03-23T20:54:46.616Z,5.05
2023-03-23T20:56:53.302Z,4.47
2023-03-23T20:57:58.192Z,4.32
2023-03-23T20:59:01.898Z,4.20
2023-03-23T21:00:06.572Z,4.22
2023-03-23T21:01:10.890Z,4.00
2023-03-23T21:02:15.299Z,4.25
2023-03-23T21:03:17.103Z,4.05
2023-03-23T21:06:23.168Z,3.60
2023-03-23T21:08:30.708Z,3.70
2023-03-23T21:09:32.527Z,3.60
2023-03-23T21:11:41.963Z,3.97
2023-03-23T21:12:43.722Z,3.60
2023-03-23T21:13:46.307Z,3.90
2023-03-23T21:14:48.000Z,3.88
2023-03-23T21:16:54.363Z,3.35
2023-03-23T21:17:56.439Z,3.50
2023-03-23T21:18:58.249Z,3.33
2023-03-23T21:20:00.184Z,3.33
2023-03-23T21:21:09.275Z,4.13
2023-03-23T21:22:14.718Z,3.80
2023-03-23T21:23:17.169Z,3.60
2023-03-23T21:24:22.091Z,3.38
2023-03-23T21:25:34.408Z,3.90
2023-03-23T21:26:38.406Z,3.75
2023-03-23T21:27:40.091Z,3.67
2023-03-23T21:28:42.423Z,4.00
2023-03-23T21:29:44.996Z,3.88
2023-03-23T21:30:48.350Z,3.65
2023-03-23T21:32:01.143Z,3.40
2023-03-23T21:33:09.061Z,3.92
2023-03-23T21:34:13.933Z,4.40
2023-03-23T21:35:15.865Z,4.50
2023-03-23T21:36:17.698Z,5.32
2023-03-23T21:38:26.506Z,5.00
2023-03-23T21:39:30.938Z,5.10
2023-03-23T21:40:32.583Z,5.18
2023-03-23T21:42:49.249Z,4.50
2023-03-23T21:43:53.953Z,4.80
2023-03-23T21:45:02.724Z,5.35
2023-03-23T21:46:06.002Z,5.18
2023-03-23T21:47:09.124Z,5.22
2023-03-23T21:48:12.130Z,4.78
2023-03-23T21:49:14.420Z,4.82
2023-03-23T21:50:16.678Z,5.63
2023-03-23T21:51:24.066Z,4.80
2023-03-23T21:52:26.612Z,5.15
2023-03-23T21:53:30.938Z,5.55
2023-03-23T21:54:34.289Z,5.60
2023-03-23T21:55:36.567Z,5.70
2023-03-23T21:56:40.629Z,5.40
2023-03-23T21:58:44.220Z,6.20
2023-03-23T21:59:46.513Z,6.28
2023-03-23T22:00:54.010Z,6.22
2023-03-23T22:01:58.497Z,6.93
2023-03-23T22:03:01.048Z,6.20
2023-03-23T22:04:03.548Z,6.40
2023-03-23T22:05:05.749Z,5.47
2023-03-23T22:06:13.399Z,5.93
2023-03-23T22:07:15.191Z,5.93
2023-03-23T22:08:17.282Z,5.85
2023-03-23T22:09:19.040Z,6.05
2023-03-23T22:11:25.461Z,5.45
2023-03-23T22:12:27.513Z,5.35
2023-03-23T22:13:33.690Z,5.18
2023-03-23T22:14:37.225Z,5.43
2023-03-23T22:15:41.510Z,5.15
2023-03-23T22:17:45.283Z,5.50
2023-03-23T22:18:48.237Z,4.82
2023-03-23T22:19:50.482Z,5.10
2023-03-23T22:20:52.267Z,4.50
2023-03-23T22:22:57.960Z,4.75
2023-03-23T22:24:01.132Z,5.43
2023-03-23T22:25:03.360Z,8.32
2023-03-23T22:26:08.733Z,7.60
2023-03-23T22:27:13.326Z,7.15
2023-03-23T22:28:15.155Z,5.78
2023-03-23T22:30:19.033Z,5.70
2023-03-23T22:31:24.318Z,6.05
2023-03-23T22:32:26.108Z,6.20
2023-03-23T22:33:31.319Z,6.47
2023-03-23T22:34:33.210Z,6.32
2023-03-23T22:35:35.135Z,5.95
2023-03-23T22:36:36.968Z,6.30
2023-03-23T22:37:41.205Z,6.43
2023-03-23T22:38:47.466Z,6.30
2023-03-23T22:39:49.436Z,5.60
2023-03-23T22:40:58.587Z,5.70
2023-03-23T22:42:02.577Z,5.30
2023-03-23T22:43:04.368Z,5.30
2023-03-23T22:45:11.041Z,4.55
2023-03-23T22:46:13.787Z,5.00
2023-03-23T22:47:15.609Z,5.28
2023-03-23T22:48:18.928Z,5.30
2023-03-23T22:49:20.751Z,5.22
2023-03-23T22:51:26.375Z,5.68
2023-03-23T22:53:30.034Z,5.93
2023-03-23T22:54:31.806Z,5.63
2023-03-23T22:56:37.190Z,5.70
2023-03-23T22:57:41.749Z,5.43
2023-03-23T22:58:44.035Z,4.63
2023-03-23T22:59:49.061Z,3.55
2023-03-23T23:00:56.923Z,3.70
2023-03-23T23:01:58.666Z,3.92
2023-03-23T23:04:02.964Z,3.05
2023-03-23T23:05:05.369Z,3.58
2023-03-23T23:06:10.145Z,3.53
2023-03-23T23:07:14.428Z,4.55
2023-03-23T23:08:18.412Z,5.28
2023-03-23T23:10:22.192Z,5.05
2023-03-23T23:11:25.547Z,5.20
2023-03-23T23:12:31.716Z,5.18
2023-03-23T23:13:33.630Z,5.10
2023-03-23T23:15:40.009Z,5.30
2023-03-23T23:16:42.287Z,5.50
2023-03-23T23:17:44.171Z,5.10
2023-03-23T23:18:49.595Z,5.30
2023-03-23T23:19:51.563Z,4.90
2023-03-23T23:20:56.639Z,4.95
2023-03-23T23:22:06.593Z,4.60
2023-03-23T23:23:18.603Z,4.82
2023-03-23T23:24:20.364Z,5.10
2023-03-23T23:26:24.478Z,4.55
2023-03-23T23:27:26.356Z,4.28
2023-03-23T23:29:31.698Z,4.45
2023-03-23T23:30:34.184Z,4.55
2023-03-23T23:31:36.108Z,4.10
2023-03-23T23:32:38.299Z,4.35
2023-03-23T23:33:40.082Z,4.20
2023-03-23T23:35:43.384Z,4.43
2023-03-23T23:36:45.736Z,4.25
2023-03-23T23:37:50.842Z,4.53
2023-03-23T23:38:52.540Z,4.43
2023-03-23T23:39:54.445Z,4.75
2023-03-23T23:41:57.747Z,4.03
2023-03-23T23:44:02.253Z,4.20
2023-03-23T23:45:04.212Z,3.97
2023-03-23T23:46:05.982Z,4.05
2023-03-23T23:48:12.561Z,4.10
2023-03-23T23:49:16.462Z,4.07
2023-03-23T23:50:20.991Z,4.32
2023-03-23T23:51:27.178Z,4.10
2023-03-23T23:52:29.047Z,4.03
2023-03-23T23:53:31.797Z,4.18
2023-03-23T23:54:33.646Z,4.43
2023-03-23T23:55:37.971Z,4.30
2023-03-23T23:56:42.220Z,4.18
2023-03-23T23:58:48.845Z,4.43
2023-03-23T23:59:51.515Z,4.18
